Time;durP1;ratioP1;P1;durP2;ratioP2;P2;SDS_P1;SDS_P2;PMS_P1;PMS_P2;Temp;Humidity;BMP_temperature;BMP_pressure;BME280_temperature;BME280_humidity;BME280_pressure;Samples;Min_cycle;Max_cycle;Signal;HPM_P1;HPM_P2
2021/12/15 00:00:32;;;;;;;;;;;;;;;2.58;100.00;101115.77;1726136;81;21078;-83
2021/12/15 00:03:00;;;;;;;;;;;;;;;2.55;100.00;101115.94;1724790;81;20535;-82
2021/12/15 00:05:26;;;;;;;;;;;;;;;2.64;100.00;101108.93;1724270;81;20873;-82
2021/12/15 00:07:55;;;;;;;;;;;;;;;2.68;100.00;101107.86;1723740;81;20273;-82
2021/12/15 00:10:23;;;;;;;;;;;;;;;2.55;100.00;101106.81;1727856;81;20494;-82
2021/12/15 00:12:48;;;;;;;;;;;;;;;2.55;100.00;101112.02;1723999;81;20476;-82
2021/12/15 00:15:16;;;;;;;;;;;;;;;2.55;100.00;101101.16;1727634;81;20143;-81
2021/12/15 00:17:45;;;;;;;;;;;;;;;2.59;100.00;101110.95;1723154;81;20174;-81
2021/12/15 00:20:14;;;;;;;;;;;;;;;2.60;100.00;101100.91;1725589;81;20210;-80
2021/12/15 00:22:40;;;;;;;;;;;;;;;2.68;100.00;101103.94;1719003;81;20174;-80
2021/12/15 00:25:06;;;;;;;;;;;;;;;2.71;100.00;101105.55;1728424;81;21099;-78
2021/12/15 00:27:32;;;;;;;;;;;;;;;2.73;100.00;101101.92;1725498;81;20640;-79
2021/12/15 00:29:58;;;;;;;;;;;;;;;2.68;100.00;101103.94;1727603;81;20192;-80
2021/12/15 00:32:24;;;;;;;;;;;;;;;2.71;100.00;101096.42;1726101;81;20505;-79
2021/12/15 00:34:51;;;;;;;;;;;;;;;2.72;100.00;101104.17;1736529;81;20207;-80
2021/12/15 00:37:22;;;;;;;;;;;;;;;2.83;100.00;101097.91;1722726;81;21122;-78
2021/12/15 00:39:49;;;;;;;;;;;;;;;2.69;100.00;101100.42;1729750;81;20115;-81
2021/12/15 00:42:16;;;;;;;;;;;;;;;2.73;100.00;101104.53;1720578;81;20140;-79
2021/12/15 00:44:44;;;;;;;;;;;;;;;2.74;100.00;101114.05;1724601;81;20178;-78
2021/12/15 00:47:12;;;;;;;;;;;;;;;2.68;100.00;101106.55;1725725;80;20208;-78
2021/12/15 00:49:38;;;;;;;;;;;;;;;2.75;100.00;101109.22;1726937;81;20472;-79
2021/12/15 00:52:06;;;;;;;;;;;;;;;2.81;100.00;101118.02;1722103;81;20103;-80
2021/12/15 00:54:31;;;;;;;;;;;;;;;2.88;100.00;101124.58;1716582;83;20178;-78
2021/12/15 00:56:57;;;;;;;;;;;;;;;2.94;100.00;101123.89;1718775;81;20718;-79
2021/12/15 00:59:23;;;;;;;;;;;;;;;3.08;100.00;101123.98;1715130;82;20126;-81
2021/12/15 01:01:50;;;;;;;;;;;;;;;3.14;100.00;101130.16;1717616;83;21820;-81
2021/12/15 01:04:18;;;;;;;;;;;;;;;3.19;100.00;101132.05;1710651;81;20480;-81
2021/12/15 01:06:47;;;;;;;;;;;;;;;3.25;100.00;101142.63;1720085;81;20171;-82
2021/12/15 01:09:17;;;;;;;;;;;;;;;3.27;100.00;101136.02;1715824;83;20127;-79
2021/12/15 01:19:59;;;;;;;;;;;;;;;3.44;100.00;101147.66;1714905;83;20113;-81
2021/12/15 01:22:30;;;;;;;;;;;;;;;3.42;100.00;101145.61;1705388;83;20184;-79
2021/12/15 01:24:58;;;;;;;;;;;;;;;3.46;100.00;101140.58;1695380;83;20189;-79
2021/12/15 01:27:24;;;;;;;;;;;;;;;3.49;100.00;101143.02;1696960;84;21128;-80
2021/12/15 01:29:50;;;;;;;;;;;;;;;3.39;100.00;101147.09;1698389;84;20228;-80
2021/12/15 01:32:17;;;;;;;;;;;;;;;3.48;100.00;101153.11;1697397;84;20493;-80
2021/12/15 01:34:44;;;;;;;;;;;;;;;3.49;100.00;101148.24;1696371;83;20749;-80
2021/12/15 01:37:12;;;;;;;;;;;;;;;3.53;100.00;101148.94;1696402;83;20165;-80
2021/12/15 01:39:40;;;;;;;;;;;;;;;3.56;100.00;101149.59;1697714;84;21075;-80
2021/12/15 01:42:08;;;;;;;;;;;;;;;3.53;100.00;101147.16;1697063;83;20156;-80
2021/12/15 01:47:22;;;;;;;;;;;;;;;3.62;100.00;101135.80;1698102;84;20178;-80
2021/12/15 01:49:51;;;;;;;;;;;;;;;3.59;100.00;101146.81;1698465;84;20160;-80
2021/12/15 01:52:25;;;;;;;;;;;;;;;3.55;100.00;101145.28;1699655;83;22076;-80
2021/12/15 01:54:55;;;;;;;;;;;;;;;3.54;100.00;101146.23;1700081;83;20206;-79
2021/12/15 01:57:22;;;;;;;;;;;;;;;3.54;100.00;101135.79;1700732;83;20644;-79
2021/12/15 01:59:48;;;;;;;;;;;;;;;3.51;100.00;101139.88;1695549;83;20196;-79
2021/12/15 02:02:15;;;;;;;;;;;;;;;3.53;100.00;101152.37;1705879;83;20297;-80
2021/12/15 02:04:41;;;;;;;;;;;;;;;3.57;100.00;101146.06;1699294;82;21163;-80
2021/12/15 02:07:10;;;;;;;;;;;;;;;3.55;100.00;101155.73;1695407;83;20469;-81
2021/12/15 02:12:12;;;;;;;;;;;;;;;3.60;100.00;101155.47;1683756;84;20271;-80
2021/12/15 02:14:39;;;;;;;;;;;;;;;3.59;100.00;101158.56;1681979;84;20130;-80
2021/12/15 02:17:05;;;;;;;;;;;;;;;3.61;100.00;101158.95;1695462;84;20161;-78
2021/12/15 02:19:30;;;;;;;;;;;;;;;3.55;100.00;101154.91;1693586;84;20733;-81
2021/12/15 02:21:58;;;;;;;;;;;;;;;3.51;100.00;101163.38;1708257;81;20150;-83
2021/12/15 02:24:23;;;;;;;;;;;;;;;3.55;100.00;101158.34;1726682;81;20143;-81
2021/12/15 02:26:55;;;;;;;;;;;;;;;3.59;100.00;101161.17;1724503;82;20138;-80
2021/12/15 02:29:19;;;;;;;;;;;;;;;3.54;100.00;101160.59;1723212;82;20130;-80
2021/12/15 02:37:16;;;;;;;;;;;;;;;3.51;100.00;101167.30;1724867;82;20467;-81
2021/12/15 02:39:32;;;;;;;;;;;;;;;3.49;100.00;101168.30;1723136;82;20110;-80
2021/12/15 02:41:59;;;;;;;;;;;;;;;3.54;100.00;101161.91;1708685;82;21049;-80
2021/12/15 02:44:25;;;;;;;;;;;;;;;3.57;100.00;101166.95;1719622;81;20158;-80
2021/12/15 02:46:52;;;;;;;;;;;;;;;3.51;100.00;101167.30;1723544;82;20150;-81
2021/12/15 02:49:20;;;;;;;;;;;;;;;3.50;100.00;101170.83;1723163;82;21259;-81
2021/12/15 02:51:47;;;;;;;;;;;;;;;3.54;100.00;101166.27;1723694;82;20198;-80
2021/12/15 02:54:13;;;;;;;;;;;;;;;3.51;100.00;101167.30;1724000;82;21204;-80
2021/12/15 02:56:41;;;;;;;;;;;;;;;3.49;100.00;101167.83;1724384;82;20484;-81
2021/12/15 02:59:08;;;;;;;;;;;;;;;3.51;100.00;101169.05;1722487;81;20170;-80
2021/12/15 03:07:17;;;;;;;;;;;;;;;3.51;100.00;101163.83;1709776;81;20165;-81
2021/12/15 03:17:55;;;;;;;;;;;;;;;3.53;100.00;101157.59;1725630;81;20209;-80
2021/12/15 03:20:21;;;;;;;;;;;;;;;3.52;100.00;101162.91;1722765;81;21337;-80
2021/12/15 03:22:49;;;;;;;;;;;;;;;3.50;100.00;101166.91;1694023;82;20489;-80
2021/12/15 03:25:14;;;;;;;;;;;;;;;3.49;100.00;101169.13;1688248;83;20469;-80
2021/12/15 03:35:59;;;;;;;;;;;;;;;3.73;100.00;101179.16;1677877;83;20191;-80
2021/12/15 03:38:13;;;;;;;;;;;;;;;3.69;100.00;101188.09;1685356;83;20150;-80
2021/12/15 03:40:41;;;;;;;;;;;;;;;3.70;100.00;101197.61;1679600;82;20206;-80
2021/12/15 03:43:09;;;;;;;;;;;;;;;3.80;100.00;101196.16;1678274;82;20579;-80
2021/12/15 03:45:42;;;;;;;;;;;;;;;3.83;100.00;101197.77;1663585;83;20968;-80
2021/12/15 03:48:12;;;;;;;;;;;;;;;3.85;100.00;101195.42;1685211;83;20147;-81
2021/12/15 03:50:39;;;;;;;;;;;;;;;3.93;100.00;101197.59;1682640;83;20504;-80
2021/12/15 03:53:08;;;;;;;;;;;;;;;3.84;100.00;101202.90;1676013;83;21112;-80
2021/12/15 03:55:36;;;;;;;;;;;;;;;3.86;100.00;101201.03;1681605;83;20167;-81
2021/12/15 03:58:06;;;;;;;;;;;;;;;3.89;100.00;101194.33;1682040;83;21040;-80
2021/12/15 04:00:30;;;;;;;;;;;;;;;3.78;100.00;101198.85;1691082;83;20493;-80
2021/12/15 04:02:56;;;;;;;;;;;;;;;3.77;100.00;101193.23;1692593;83;20118;-80
2021/12/15 04:05:22;;;;;;;;;;;;;;;3.63;100.00;101198.88;1652912;83;20791;-80
2021/12/15 04:07:49;;;;;;;;;;;;;;;3.67;100.00;101198.62;1678323;83;20136;-80
2021/12/15 04:10:19;;;;;;;;;;;;;;;3.65;100.00;101208.32;1663603;83;21390;-80
2021/12/15 04:12:44;;;;;;;;;;;;;;;3.55;100.00;101214.97;1691668;82;20156;-80
2021/12/15 04:15:27;;;;;;;;;;;;;;;3.68;100.00;101211.20;1688644;83;20213;-80
2021/12/15 04:17:47;;;;;;;;;;;;;;;3.74;100.00;101210.42;1681070;83;20142;-79
2021/12/15 04:20:16;;;;;;;;;;;;;;;3.71;100.00;101217.56;1685387;82;20558;-80
2021/12/15 04:22:41;;;;;;;;;;;;;;;3.68;100.00;101220.34;1687788;83;21959;-80
2021/12/15 04:25:09;;;;;;;;;;;;;;;3.76;100.00;101211.64;1698239;83;20140;-80
2021/12/15 04:27:36;;;;;;;;;;;;;;;3.80;100.00;101213.13;1697780;83;20158;-81
2021/12/15 04:30:06;;;;;;;;;;;;;;;3.83;100.00;101220.80;1697935;83;20177;-80
2021/12/15 04:32:41;;;;;;;;;;;;;;;3.85;100.00;101220.23;1683193;84;20224;-81
2021/12/15 04:35:09;;;;;;;;;;;;;;;3.89;100.00;101226.98;1697527;83;21034;-81
2021/12/15 04:37:35;;;;;;;;;;;;;;;3.80;100.00;101230.12;1683730;84;20205;-81
2021/12/15 04:40:04;;;;;;;;;;;;;;;3.78;100.00;101238.04;1695626;84;20263;-80
2021/12/15 04:42:30;;;;;;;;;;;;;;;3.78;100.00;101242.44;1696850;84;20176;-81
2021/12/15 04:44:56;;;;;;;;;;;;;;;3.80;100.00;101235.34;1695373;83;20262;-81
2021/12/15 04:47:23;;;;;;;;;;;;;;;3.83;100.00;101233.03;1698606;84;20901;-80
2021/12/15 04:49:51;;;;;;;;;;;;;;;3.81;100.00;101239.66;1695455;83;20128;-80
2021/12/15 04:52:18;;;;;;;;;;;;;;;3.76;100.00;101248.22;1683081;84;20141;-81
2021/12/15 04:54:44;;;;;;;;;;;;;;;3.77;100.00;101244.66;1682535;84;21459;-81
2021/12/15 04:57:09;;;;;;;;;;;;;;;3.80;100.00;101240.56;1698479;84;20141;-80
2021/12/15 04:59:38;;;;;;;;;;;;;;;3.84;100.00;101242.09;1696775;84;21160;-80
2021/12/15 05:02:05;;;;;;;;;;;;;;;3.78;100.00;101239.82;1697189;84;20180;-81
2021/12/15 05:04:31;;;;;;;;;;;;;;;3.84;100.00;101249.93;1696934;84;20173;-81
2021/12/15 05:06:59;;;;;;;;;;;;;;;3.72;100.00;101248.00;1697622;84;20168;-81
2021/12/15 05:09:28;;;;;;;;;;;;;;;3.78;100.00;101252.88;1697635;84;20185;-81
2021/12/15 05:11:54;;;;;;;;;;;;;;;3.73;100.00;101251.83;1697602;83;20136;-81
2021/12/15 05:14:20;;;;;;;;;;;;;;;3.71;100.00;101252.39;1699890;83;20137;-81
2021/12/15 05:16:48;;;;;;;;;;;;;;;3.68;100.00;101249.95;1682265;84;20157;-81
2021/12/15 05:19:13;;;;;;;;;;;;;;;3.70;100.00;101252.00;1700816;83;20335;-79
2021/12/15 05:21:39;;;;;;;;;;;;;;;3.70;100.00;101248.56;1699218;83;20185;-81
2021/12/15 05:24:14;;;;;;;;;;;;;;;3.73;100.00;101245.30;1719126;81;21106;-81
2021/12/15 05:26:32;;;;;;;;;;;;;;;3.77;100.00;101248.58;1715604;82;20618;-81
2021/12/15 05:29:01;;;;;;;;;;;;;;;3.73;100.00;101253.14;1718804;83;20169;-81
2021/12/15 05:31:27;;;;;;;;;;;;;;;3.72;100.00;101261.06;1717092;83;20195;-81
2021/12/15 05:33:52;;;;;;;;;;;;;;;3.76;100.00;101263.42;1718024;82;20182;-79
2021/12/15 05:36:18;;;;;;;;;;;;;;;3.77;100.00;101268.17;1717458;83;21362;-81
2021/12/15 05:38:43;;;;;;;;;;;;;;;3.72;100.00;101266.28;1721383;82;20466;-81
2021/12/15 05:41:09;;;;;;;;;;;;;;;3.61;100.00;101268.65;1719017;83;20202;-81
2021/12/15 05:43:35;;;;;;;;;;;;;;;3.69;100.00;101266.45;1720723;82;20772;-80
2021/12/15 05:46:02;;;;;;;;;;;;;;;3.73;100.00;101267.98;1705824;83;20185;-81
2021/12/15 05:48:28;;;;;;;;;;;;;;;3.80;100.00;101266.70;1721166;81;20173;-81
2021/12/15 05:50:54;;;;;;;;;;;;;;;3.79;100.00;101267.61;1718462;81;20196;-80
2021/12/15 05:53:22;;;;;;;;;;;;;;;3.72;100.00;101278.04;1718551;83;20659;-80
2021/12/15 05:55:48;;;;;;;;;;;;;;;3.65;100.00;101271.02;1710359;82;20726;-81
2021/12/15 05:58:13;;;;;;;;;;;;;;;3.65;100.00;101277.98;1721210;82;20268;-80
2021/12/15 06:00:40;;;;;;;;;;;;;;;3.66;100.00;101284.91;1718818;83;21833;-81
2021/12/15 06:03:06;;;;;;;;;;;;;;;3.70;100.00;101282.52;1720438;81;20195;-81
2021/12/15 06:05:32;;;;;;;;;;;;;;;3.80;100.00;101290.21;1721089;82;20292;-80
2021/12/15 06:07:58;;;;;;;;;;;;;;;3.81;100.00;101291.91;1718092;82;20832;-80
2021/12/15 06:10:26;;;;;;;;;;;;;;;3.71;100.00;101292.02;1720291;82;20134;-80
2021/12/15 06:12:51;;;;;;;;;;;;;;;3.76;100.00;101300.47;1723311;82;21135;-79
2021/12/15 06:15:22;;;;;;;;;;;;;;;3.83;100.00;101303.10;1721523;82;20195;-80
2021/12/15 06:17:52;;;;;;;;;;;;;;;3.85;100.00;101303.85;1722000;82;20551;-80
2021/12/15 06:20:18;;;;;;;;;;;;;;;3.84;100.00;101304.80;1718883;82;20223;-80
2021/12/15 06:22:45;;;;;;;;;;;;;;;3.83;100.00;101312.25;1720165;82;20272;-80
2021/12/15 06:25:11;;;;;;;;;;;;;;;3.83;100.00;101312.72;1724696;82;21954;-80
2021/12/15 06:27:40;;;;;;;;;;;;;;;3.84;100.00;101312.64;1723285;82;20131;-80
2021/12/15 06:30:08;;;;;;;;;;;;;;;3.90;100.00;101314.92;1727735;81;20174;-80
2021/12/15 06:32:34;;;;;;;;;;;;;;;3.88;100.00;101318.05;1725998;81;20191;-80
2021/12/15 06:34:59;;;;;;;;;;;;;;;4.04;100.00;101306.31;1723860;82;20747;-80
2021/12/15 06:37:27;;;;;;;;;;;;;;;4.05;100.00;101300.62;1724444;82;21177;-83
2021/12/15 06:39:57;;;;;;;;;;;;;;;4.08;100.00;101297.83;1722800;82;20825;-80
2021/12/15 06:42:24;;;;;;;;;;;;;;;4.01;100.00;101300.39;1723651;82;20174;-81
2021/12/15 06:44:49;;;;;;;;;;;;;;;3.98;100.00;101307.09;1726584;82;20720;-80
2021/12/15 06:47:50;;;;;;;;;;;;;;;4.00;100.00;101306.57;1724464;83;20193;-79
2021/12/15 06:58:13;;;;;;;;;;;;;;;3.99;100.00;101337.07;1722411;82;20142;-80
2021/12/15 07:00:45;;;;;;;;;;;;;;;3.95;100.00;101329.88;1723979;83;20204;-81
2021/12/15 07:03:10;;;;;;;;;;;;;;;3.93;100.00;101335.66;1724868;82;21086;-80
2021/12/15 07:05:40;;;;;;;;;;;;;;;3.89;100.00;101339.36;1724354;82;20138;-79
2021/12/15 07:08:06;;;;;;;;;;;;;;;4.04;100.00;101344.66;1724352;81;20230;-80
2021/12/15 07:10:33;;;;;;;;;;;;;;;4.06;100.00;101349.36;1724180;83;20180;-81
2021/12/15 07:12:59;;;;;;;;;;;;;;;4.08;100.00;101341.80;1723903;83;20226;-81
2021/12/15 07:15:24;;;;;;;;;;;;;;;4.09;100.00;101346.58;1725537;81;21091;-80
2021/12/15 07:17:52;;;;;;;;;;;;;;;4.14;100.00;101353.69;1722336;81;20134;-81
2021/12/15 07:22:58;;;;;;;;;;;;;;;4.20;100.00;101355.97;1721712;82;20820;-81
2021/12/15 07:25:24;;;;;;;;;;;;;;;4.20;100.00;101352.05;1694972;83;20164;-79
2021/12/15 07:27:53;;;;;;;;;;;;;;;4.23;100.00;101351.87;1695677;83;21110;-81
2021/12/15 07:30:20;;;;;;;;;;;;;;;4.28;100.00;101358.16;1697662;84;20267;-80
2021/12/15 07:32:49;;;;;;;;;;;;;;;4.24;100.00;101367.09;1698805;84;20546;-80
2021/12/15 07:35:17;;;;;;;;;;;;;;;4.27;100.00;101362.55;1696180;83;20212;-80
2021/12/15 07:37:42;;;;;;;;;;;;;;;4.35;100.00;101362.57;1697988;83;20169;-80
2021/12/15 07:40:12;;;;;;;;;;;;;;;4.33;100.00;101360.52;1696666;83;21883;-79
2021/12/15 07:42:55;;;;;;;;;;;;;;;4.30;100.00;101364.14;1698357;84;20218;-80
2021/12/15 07:45:10;;;;;;;;;;;;;;;4.30;100.00;101370.23;1692062;83;20198;-81
2021/12/15 07:47:36;;;;;;;;;;;;;;;4.24;100.00;101364.03;1697388;83;20137;-82
2021/12/15 07:50:02;;;;;;;;;;;;;;;4.22;100.00;101363.73;1700026;84;20129;-80
2021/12/15 07:52:29;;;;;;;;;;;;;;;4.14;100.00;101364.15;1696686;83;21079;-79
2021/12/15 07:54:55;;;;;;;;;;;;;;;4.25;100.00;101359.16;1698453;84;20559;-80
2021/12/15 07:57:22;;;;;;;;;;;;;;;4.23;100.00;101353.19;1682784;83;20125;-80
2021/12/15 07:59:48;;;;;;;;;;;;;;;4.23;100.00;101353.19;1693309;84;20204;-79
2021/12/15 08:02:15;;;;;;;;;;;;;;;4.20;100.00;101348.13;1693642;84;20144;-79
2021/12/15 08:04:43;;;;;;;;;;;;;;;4.26;100.00;101349.56;1683915;83;22169;-80
2021/12/15 08:07:09;;;;;;;;;;;;;;;4.35;100.00;101350.80;1702492;83;20197;-80
2021/12/15 08:09:36;;;;;;;;;;;;;;;4.23;100.00;101345.34;1695074;84;20129;-80
2021/12/15 08:12:02;;;;;;;;;;;;;;;4.30;100.00;101359.77;1695491;83;20912;-78
2021/12/15 08:14:29;;;;;;;;;;;;;;;4.28;100.00;101362.91;1679919;84;20246;-80
2021/12/15 08:16:55;;;;;;;;;;;;;;;4.28;100.00;101368.62;1692515;83;22384;-79
2021/12/15 08:19:21;;;;;;;;;;;;;;;4.25;100.00;101370.09;1678204;84;20128;-79
2021/12/15 08:21:51;;;;;;;;;;;;;;;4.25;100.00;101373.55;1695470;83;20137;-78
2021/12/15 08:24:19;;;;;;;;;;;;;;;4.25;100.00;101379.25;1691752;83;20716;-79
2021/12/15 08:26:44;;;;;;;;;;;;;;;4.07;100.00;101373.24;1696368;83;20161;-81
2021/12/15 08:29:12;;;;;;;;;;;;;;;4.29;100.00;101380.77;1699022;83;21187;-81
2021/12/15 08:31:37;;;;;;;;;;;;;;;4.30;100.00;101383.30;1696098;83;20207;-79
2021/12/15 08:34:03;;;;;;;;;;;;;;;4.33;100.00;101382.27;1696128;83;20621;-78
2021/12/15 08:36:29;;;;;;;;;;;;;;;4.24;100.00;101387.56;1695756;84;20183;-81
2021/12/15 08:38:56;;;;;;;;;;;;;;;4.21;100.00;101387.73;1680882;84;20569;-79
2021/12/15 08:41:24;;;;;;;;;;;;;;;4.31;100.00;101392.81;1697579;84;21084;-80
2021/12/15 08:43:50;;;;;;;;;;;;;;;4.42;100.00;101391.39;1698355;84;20819;-81
2021/12/15 08:46:20;;;;;;;;;;;;;;;4.51;100.00;101400.50;1696301;84;20117;-80
2021/12/15 08:48:47;;;;;;;;;;;;;;;4.38;100.00;101404.24;1681530;84;20327;-80
2021/12/15 08:51:14;;;;;;;;;;;;;;;4.51;100.00;101406.56;1706546;83;20566;-80
2021/12/15 08:53:41;;;;;;;;;;;;;;;4.54;100.00;101402.47;1696850;83;21074;-80
2021/12/15 08:56:07;;;;;;;;;;;;;;;4.35;100.00;101409.64;1698051;84;20172;-80
2021/12/15 08:58:36;;;;;;;;;;;;;;;4.38;100.00;101401.62;1682454;84;20121;-80
2021/12/15 09:01:02;;;;;;;;;;;;;;;4.34;100.00;101394.91;1697557;83;20665;-81
2021/12/15 09:03:28;;;;;;;;;;;;;;;4.38;100.00;101395.09;1697897;83;20133;-80
2021/12/15 09:05:58;;;;;;;;;;;;;;;4.31;100.00;101395.43;1695636;84;21123;-80
2021/12/15 09:08:26;;;;;;;;;;;;;;;4.23;100.00;101393.71;1697093;84;20129;-79
2021/12/15 09:10:53;;;;;;;;;;;;;;;4.18;100.00;101400.97;1696671;83;20137;-79
2021/12/15 09:13:22;;;;;;;;;;;;;;;4.25;100.00;101393.63;1695634;84;20177;-78
2021/12/15 09:15:48;;;;;;;;;;;;;;;4.21;100.00;101381.20;1697207;83;20843;-80
2021/12/15 09:18:13;;;;;;;;;;;;;;;4.13;100.00;101391.20;1698237;84;21095;-80
2021/12/15 09:20:40;;;;;;;;;;;;;;;4.02;100.00;101384.42;1698332;83;20476;-79
2021/12/15 09:23:09;;;;;;;;;;;;;;;4.17;100.00;101389.30;1698946;83;21077;-79
2021/12/15 09:25:36;;;;;;;;;;;;;;;4.11;100.00;101386.54;1703331;82;20479;-78
2021/12/15 09:28:03;;;;;;;;;;;;;;;3.97;100.00;101383.84;1707067;82;20175;-79
2021/12/15 09:30:34;;;;;;;;;;;;;;;3.93;100.00;101374.86;1684566;82;20979;-79
2021/12/15 09:33:02;;;;;;;;;;;;;;;3.99;100.00;101371.52;1708626;82;20108;-80
2021/12/15 09:35:30;;;;;;;;;;;;;;;4.07;100.00;101370.63;1702609;82;20116;-79
2021/12/15 09:37:56;;;;;;;;;;;;;;;3.95;100.00;101361.70;1701882;82;20122;-79
2021/12/15 09:40:22;;;;;;;;;;;;;;;4.19;100.00;101363.42;1700588;82;20203;-79
2021/12/15 09:42:48;;;;;;;;;;;;;;;4.24;100.00;101361.42;1703115;82;21162;-81
2021/12/15 09:45:26;;;;;;;;;;;;;;;4.16;100.00;101377.97;1689028;82;20286;-80
2021/12/15 10:17:27;;;;;;;;;;;;;;;4.42;100.00;101344.31;1746651;82;20103;-78
2021/12/15 10:19:51;;;;;;;;;;;;;;;4.52;100.00;101340.22;1745512;81;20304;-77
2021/12/15 10:22:34;;;;;;;;;;;;;;;4.59;100.00;101345.49;1744064;81;20820;-81
2021/12/15 10:24:59;;;;;;;;;;;;;;;4.62;100.00;101332.71;1740698;81;20130;-79
2021/12/15 10:27:44;;;;;;;;;;;;;;;4.56;100.00;101337.82;1742844;82;20149;-81
2021/12/15 10:30:26;;;;;;;;;;;;;;;4.62;100.00;101335.33;1745880;81;20158;-81
2021/12/15 10:32:58;;;;;;;;;;;;;;;4.65;100.00;101327.30;1741996;81;21920;-81
2021/12/15 10:35:29;;;;;;;;;;;;;;;4.75;100.00;101330.22;1743306;81;20209;-81
2021/12/15 10:38:29;;;;;;;;;;;;;;;4.89;100.00;101326.80;1742343;81;20198;-82
2021/12/15 10:41:05;;;;;;;;;;;;;;;4.94;100.00;101324.30;1743868;81;21178;-79
2021/12/15 10:43:40;;;;;;;;;;;;;;;4.87;100.00;101326.89;1742160;81;20515;-78
2021/12/15 10:46:11;;;;;;;;;;;;;;;4.61;100.00;101329.23;1743317;81;21096;-79
2021/12/15 10:48:46;;;;;;;;;;;;;;;4.55;100.00;101321.73;1745928;81;20132;-78
2021/12/15 10:51:22;;;;;;;;;;;;;;;4.65;100.00;101332.06;1731964;81;20141;-80
2021/12/15 10:53:48;;;;;;;;;;;;;;;4.74;100.00;101326.77;1745682;81;20809;-78
2021/12/15 10:56:17;;;;;;;;;;;;;;;4.51;100.00;101340.34;1742630;81;20317;-78
2021/12/15 10:58:44;;;;;;;;;;;;;;;4.52;100.00;101334.98;1746712;81;20476;-79
2021/12/15 11:01:43;;;;;;;;;;;;;;;4.67;100.00;101331.49;1744223;81;20205;-80
2021/12/15 11:04:24;;;;;;;;;;;;;;;4.58;100.00;101328.58;1743837;81;20343;-82
2021/12/15 11:07:10;;;;;;;;;;;;;;;4.70;100.00;101320.50;1745204;81;20480;-80
2021/12/15 11:09:43;;;;;;;;;;;;;;;4.72;100.00;101322.55;1747013;81;20204;-80
2021/12/15 11:12:12;;;;;;;;;;;;;;;4.62;100.00;101321.77;1742142;81;21214;-79
2021/12/15 11:14:40;;;;;;;;;;;;;;;4.61;100.00;101313.53;1736675;82;20127;-79
2021/12/15 11:17:09;;;;;;;;;;;;;;;4.68;100.00;101314.87;1731376;82;20496;-79
2021/12/15 11:19:37;;;;;;;;;;;;;;;4.61;100.00;101317.45;1733834;82;20441;-79
2021/12/15 11:22:21;;;;;;;;;;;;;;;4.73;100.00;101311.16;1726817;82;20175;-81
2021/12/15 11:24:47;;;;;;;;;;;;;;;4.73;100.00;101309.84;1679183;83;22523;-79
2021/12/15 11:27:16;;;;;;;;;;;;;;;4.65;100.00;101318.14;1710821;81;20174;-79
2021/12/15 11:29:42;;;;;;;;;;;;;;;4.53;100.00;101311.84;1728817;82;20652;-79
2021/12/15 11:32:08;;;;;;;;;;;;;;;4.66;100.00;101301.05;1732372;82;20237;-82
2021/12/15 11:34:33;;;;;;;;;;;;;;;4.76;100.00;101301.82;1707708;82;20174;-78
2021/12/15 11:36:59;;;;;;;;;;;;;;;4.77;100.00;101304.80;1731784;81;21091;-79
2021/12/15 11:39:25;;;;;;;;;;;;;;;4.74;100.00;101305.84;1731204;81;20273;-78
2021/12/15 11:41:53;;;;;;;;;;;;;;;4.80;100.00;101299.38;1728302;82;20193;-80
2021/12/15 11:44:21;;;;;;;;;;;;;;;4.95;100.00;101313.34;1731916;82;20179;-79
2021/12/15 11:46:50;;;;;;;;;;;;;;;4.88;100.00;101311.57;1727832;81;20224;-79
2021/12/15 11:49:22;;;;;;;;;;;;;;;4.86;100.00;101304.25;1733488;81;21335;-82
2021/12/15 11:51:59;;;;;;;;;;;;;;;4.91;100.00;101306.16;1711655;82;20173;-80
2021/12/15 11:54:31;;;;;;;;;;;;;;;4.82;100.00;101302.30;1733069;82;20110;-81
2021/12/15 11:57:18;;;;;;;;;;;;;;;4.93;100.00;101304.75;1733534;81;20609;-81
2021/12/15 11:59:54;;;;;;;;;;;;;;;4.94;100.00;101298.13;1729876;82;20564;-77
2021/12/15 12:02:24;;;;;;;;;;;;;;;4.95;100.00;101303.70;1728856;82;20158;-77
2021/12/15 12:04:54;;;;;;;;;;;;;;;5.02;100.00;101303.73;1732415;81;20152;-80
2021/12/15 12:07:38;;;;;;;;;;;;;;;5.00;100.00;101297.75;1733845;81;20177;-78
2021/12/15 12:10:16;;;;;;;;;;;;;;;5.13;100.00;101300.95;1732712;82;20258;-81
2021/12/15 12:12:51;;;;;;;;;;;;;;;5.00;100.00;101293.83;1734458;82;20185;-78
2021/12/15 12:15:15;;;;;;;;;;;;;;;5.12;100.00;101291.39;1741834;81;20198;-79
2021/12/15 12:17:47;;;;;;;;;;;;;;;5.14;100.00;101296.92;1740710;81;20114;-77
2021/12/15 12:20:18;;;;;;;;;;;;;;;5.15;100.00;101303.00;1732483;81;21059;-81
2021/12/15 12:22:45;;;;;;;;;;;;;;;5.29;100.00;101302.99;1745281;81;20184;-79
2021/12/15 12:25:20;;;;;;;;;;;;;;;5.32;100.00;101298.88;1739679;81;20251;-79
2021/12/15 12:27:47;;;;;;;;;;;;;;;5.34;100.00;101300.92;1739601;81;22063;-80
2021/12/15 12:30:18;;;;;;;;;;;;;;;5.37;100.00;101301.22;1742944;80;20285;-79
2021/12/15 12:32:44;;;;;;;;;;;;;;;5.40;100.00;101291.37;1738822;81;20150;-79
2021/12/15 12:35:12;;;;;;;;;;;;;;;5.52;100.00;101296.82;1743410;80;20189;-79
2021/12/15 12:37:38;;;;;;;;;;;;;;;5.64;100.00;101297.81;1739778;81;20167;-80
2021/12/15 12:40:16;;;;;;;;;;;;;;;5.70;100.00;101295.67;1742294;81;20999;-79
2021/12/15 12:42:42;;;;;;;;;;;;;;;5.77;100.00;101293.98;1735917;82;20150;-78
2021/12/15 12:45:32;;;;;;;;;;;;;;;5.82;100.00;101297.14;1741528;81;20185;-79
2021/12/15 12:48:07;;;;;;;;;;;;;;;5.85;100.00;101300.41;1741275;81;20134;-79
2021/12/15 13:01:15;;;;;;;;;;;;;;;6.01;100.00;101313.88;1712690;82;20175;-80
2021/12/15 13:03:45;;;;;;;;;;;;;;;5.90;100.00;101304.05;1717695;82;20166;-81
2021/12/15 13:06:15;;;;;;;;;;;;;;;5.99;100.00;101316.60;1737372;82;20166;-77
2021/12/15 13:08:49;;;;;;;;;;;;;;;6.05;100.00;101321.94;1741173;81;20128;-78
2021/12/15 13:11:19;;;;;;;;;;;;;;;6.02;100.00;101324.27;1737361;81;20174;-81
2021/12/15 13:13:54;;;;;;;;;;;;;;;5.93;100.00;101315.20;1734092;82;20904;-79
2021/12/15 13:16:32;;;;;;;;;;;;;;;5.90;100.00;101325.02;1737434;82;20207;-80
2021/12/15 13:19:02;;;;;;;;;;;;;;;5.89;100.00;101328.59;1735313;82;21971;-78
2021/12/15 13:22:18;;;;;;;;;;;;;;;5.91;100.00;101334.09;1737540;82;20131;-79
2021/12/15 13:30:47;;;;;;;;;;;;;;;5.90;100.00;101338.13;1743910;81;20202;-80
2021/12/15 13:33:36;;;;;;;;;;;;;;;6.05;100.00;101341.13;1739851;82;22413;-79
2021/12/15 13:36:25;;;;;;;;;;;;;;;6.19;100.00;101338.94;1732267;82;20156;-78
2021/12/15 13:39:10;;;;;;;;;;;;;;;6.24;100.00;101328.15;1738023;81;20328;-81
2021/12/15 13:42:00;;;;;;;;;;;;;;;6.22;100.00;101337.91;1741276;81;20195;-77
2021/12/15 13:44:35;;;;;;;;;;;;;;;6.24;100.00;101332.08;1740206;81;20398;-79
2021/12/15 13:46:58;;;;;;;;;;;;;;;6.20;100.00;101339.77;1738560;82;20145;-80
2021/12/15 13:49:34;;;;;;;;;;;;;;;6.21;100.00;101335.73;1735390;82;20201;-81
2021/12/15 13:52:09;;;;;;;;;;;;;;;6.17;100.00;101334.27;1741630;82;20154;-79
2021/12/15 13:54:39;;;;;;;;;;;;;;;6.14;100.00;101336.22;1741983;81;20168;-78
2021/12/15 13:57:14;;;;;;;;;;;;;;;6.07;100.00;101335.30;1734945;81;20198;-78
2021/12/15 13:59:46;;;;;;;;;;;;;;;6.11;100.00;101336.80;1742695;82;21169;-78
2021/12/15 14:02:23;;;;;;;;;;;;;;;6.16;100.00;101333.05;1729301;82;20149;-79
2021/12/15 14:04:51;;;;;;;;;;;;;;;6.04;100.00;101334.66;1744480;81;20317;-78
2021/12/15 14:07:32;;;;;;;;;;;;;;;6.02;100.00;101334.77;1737143;82;20193;-78
2021/12/15 14:10:13;;;;;;;;;;;;;;;5.94;100.00;101335.70;1741660;82;20662;-81
2021/12/15 14:12:48;;;;;;;;;;;;;;;6.05;100.00;101335.88;1740974;82;21020;-77
2021/12/15 14:15:37;;;;;;;;;;;;;;;5.99;100.00;101337.58;1737581;80;20126;-79
2021/12/15 14:18:18;;;;;;;;;;;;;;;5.92;100.00;101337.58;1731930;82;20649;-78
2021/12/15 14:20:47;;;;;;;;;;;;;;;6.04;100.00;101339.43;1729536;82;20103;-77
2021/12/15 14:23:22;;;;;;;;;;;;;;;6.12;100.00;101341.56;1730451;81;20122;-78